Time;durP1;ratioP1;P1;durP2;ratioP2;P2;SDS_P1;SDS_P2;PMS_P1;PMS_P2;Temp;Humidity;BMP_temperature;BMP_pressure;BME280_temperature;BME280_humidity;BME280_pressure;Samples;Min_cycle;Max_cycle;Signal;HPM_P1;HPM_P2
2023/12/28 00:01:08;;;;;;;1.17;0.98;;;;;;;17.06;44.51;100833.31;5033952;28;20037;-56
2023/12/28 00:03:34;;;;;;;3.28;1.08;;;;;;;17.09;44.79;100826.72;5035258;28;20026;-56
2023/12/28 00:05:59;;;;;;;2.30;1.15;;;;;;;17.10;44.77;100823.00;5033832;28;20509;-56
2023/12/28 00:08:25;;;;;;;2.22;1.48;;;;;;;17.07;44.43;100810.66;5033864;28;20401;-56
2023/12/28 00:10:50;;;;;;;2.28;0.70;;;;;;;17.09;44.20;100808.63;5035474;28;20034;-56
2023/12/28 00:13:16;;;;;;;2.63;1.10;;;;;;;17.08;44.83;100825.03;5035036;28;20460;-56
2023/12/28 00:15:41;;;;;;;6.07;0.90;;;;;;;17.09;44.66;100811.31;5016369;28;20033;-56
2023/12/28 00:18:06;;;;;;;2.13;1.33;;;;;;;17.11;45.27;100819.28;5033579;28;20501;-56
2023/12/28 00:20:32;;;;;;;2.97;1.38;;;;;;;17.14;45.46;100829.78;5033601;28;20120;-56
2023/12/28 00:22:58;;;;;;;3.03;1.13;;;;;;;17.15;45.44;100826.03;5034778;28;20036;-56
2023/12/28 00:25:23;;;;;;;1.83;0.93;;;;;;;17.18;45.10;100817.56;5033342;28;20087;-56
2023/12/28 00:27:49;;;;;;;3.53;1.15;;;;;;;17.20;45.30;100823.66;5034786;28;20034;-56
2023/12/28 00:30:16;;;;;;;2.33;1.13;;;;;;;17.19;44.48;100821.97;5033377;28;20112;-56
2023/12/28 00:32:44;;;;;;;5.35;1.13;;;;;;;17.17;45.51;100827.56;5034515;28;20037;-56
2023/12/28 00:35:09;;;;;;;3.13;1.30;;;;;;;17.17;45.14;100838.38;5034678;28;20033;-56
2023/12/28 00:37:35;;;;;;;2.65;1.08;;;;;;;17.16;45.83;100827.75;5033621;28;20033;-56
2023/12/28 00:40:00;;;;;;;2.05;1.08;;;;;;;17.16;45.58;100827.75;5017108;28;20117;-56
2023/12/28 00:42:25;;;;;;;1.33;0.93;;;;;;;17.19;46.11;100849.06;5034476;28;20079;-56
2023/12/28 00:44:52;;;;;;;2.60;1.10;;;;;;;17.17;45.25;100832.16;5034720;28;20045;-56
2023/12/28 00:47:17;;;;;;;2.63;1.00;;;;;;;17.15;45.82;100826.88;5034387;28;20076;-56
2023/12/28 00:49:43;;;;;;;1.20;0.90;;;;;;;17.13;45.66;100838.91;5034128;28;20496;-56
2023/12/28 00:52:08;;;;;;;1.35;0.93;;;;;;;17.18;45.27;100831.09;5034065;28;20030;-56
2023/12/28 00:54:36;;;;;;;2.38;1.13;;;;;;;17.16;46.38;100839.41;5034017;28;20461;-56
2023/12/28 00:57:02;;;;;;;1.85;0.85;;;;;;;17.15;45.74;100845.84;5032851;28;20041;-56
2023/12/28 00:59:28;;;;;;;1.42;1.08;;;;;;;17.17;46.22;100856.50;5032763;28;20108;-56
2023/12/28 01:01:53;;;;;;;1.65;0.88;;;;;;;17.15;46.62;100853.97;5034046;28;20060;-56
2023/12/28 01:04:18;;;;;;;2.17;1.20;;;;;;;17.18;46.52;100863.59;5034161;28;20057;-56
2023/12/28 01:06:44;;;;;;;2.15;1.20;;;;;;;17.17;46.32;100856.50;5034071;28;20037;-56
2023/12/28 01:09:09;;;;;;;2.58;1.17;;;;;;;17.15;46.08;100843.13;5032762;28;20515;-56
2023/12/28 01:11:35;;;;;;;3.35;1.27;;;;;;;17.15;46.42;100842.28;5033890;28;20438;-56
2023/12/28 01:14:00;;;;;;;1.90;1.42;;;;;;;17.15;46.51;100844.97;5033885;28;20064;-56
2023/12/28 01:16:26;;;;;;;3.45;1.13;;;;;;;17.13;46.49;100847.88;5032455;28;20497;-56
2023/12/28 01:18:51;;;;;;;1.73;1.60;;;;;;;17.12;46.98;100845.31;5033710;28;20546;-56
2023/12/28 01:21:17;;;;;;;2.38;1.30;;;;;;;17.10;46.29;100845.50;5033733;28;20489;-56
2023/12/28 01:23:42;;;;;;;2.88;1.73;;;;;;;17.11;46.28;100846.34;5033658;28;20382;-56
2023/12/28 01:26:13;;;;;;;2.08;1.10;;;;;;;17.12;46.91;100839.91;5033203;28;20052;-56
2023/12/28 01:28:38;;;;;;;2.90;1.27;;;;;;;17.12;46.07;100848.03;5032361;28;20026;-56
2023/12/28 01:31:04;;;;;;;1.75;1.55;;;;;;;17.12;46.44;100869.69;5031890;28;20056;-56
2023/12/28 01:33:29;;;;;;;3.05;1.00;;;;;;;17.13;47.00;100857.84;5032620;28;20121;-56
2023/12/28 01:35:54;;;;;;;1.95;1.10;;;;;;;17.14;46.54;100873.09;5032089;28;20468;-56
2023/12/28 01:38:20;;;;;;;3.38;1.20;;;;;;;17.16;46.46;100888.16;5033591;28;20064;-56
2023/12/28 01:40:46;;;;;;;2.15;1.42;;;;;;;17.17;47.34;100883.56;5033568;28;20034;-56
2023/12/28 01:43:11;;;;;;;2.50;1.40;;;;;;;17.17;47.45;100886.28;5034240;28;20493;-56
2023/12/28 01:45:37;;;;;;;2.50;1.52;;;;;;;17.16;47.47;100892.72;5032573;28;20494;-56
2023/12/28 01:48:02;;;;;;;1.50;1.13;;;;;;;17.12;46.78;100881.38;5031986;28;20390;-56
2023/12/28 01:50:28;;;;;;;3.67;1.10;;;;;;;17.13;47.19;100882.22;5032053;28;20045;-56
2023/12/28 01:52:55;;;;;;;2.17;1.20;;;;;;;17.13;47.39;100877.66;5032068;28;20038;-56
2023/12/28 01:55:23;;;;;;;3.22;1.25;;;;;;;17.13;47.18;100884.91;5033391;28;20611;-56
2023/12/28 01:57:49;;;;;;;7.68;2.10;;;;;;;17.13;46.63;100893.03;5032031;28;20124;-56
2023/12/28 02:00:14;;;;;;;2.42;1.30;;;;;;;17.10;47.90;100880.69;5033144;28;20059;-56
2023/12/28 02:02:41;;;;;;;4.45;1.90;;;;;;;17.10;47.18;100887.97;5032716;28;20037;-56
2023/12/28 02:05:07;;;;;;;2.45;1.05;;;;;;;17.09;46.86;100876.28;5032601;28;20040;-56
2023/12/28 02:07:32;;;;;;;1.67;1.05;;;;;;;17.07;47.00;100875.63;5037052;28;20037;-56
2023/12/28 02:09:58;;;;;;;3.88;1.30;;;;;;;17.03;47.24;100868.03;5053012;28;20036;-56
2023/12/28 02:12:23;;;;;;;2.50;1.23;;;;;;;17.02;47.95;100872.59;5053575;28;20041;-57
2023/12/28 02:14:49;;;;;;;3.20;1.92;;;;;;;16.99;47.08;100877.47;5054063;28;20025;-56
2023/12/28 02:17:23;;;;;;;7.80;1.20;;;;;;;16.97;48.20;100882.22;5055402;28;20404;-56
2023/12/28 02:19:53;;;;;;;2.33;1.23;;;;;;;16.96;47.27;100883.22;5042543;28;20030;-56
2023/12/28 02:22:18;;;;;;;2.53;1.42;;;;;;;16.97;47.21;100882.22;5031851;28;20517;-56
2023/12/28 02:25:08;;;;;;;3.13;1.50;;;;;;;16.98;47.14;100894.72;5032885;28;20044;-56
2023/12/28 02:27:41;;;;;;;3.95;1.38;;;;;;;16.96;46.92;100885.94;5032734;28;20064;-56
2023/12/28 02:30:08;;;;;;;1.52;1.42;;;;;;;16.99;47.59;100893.72;5031937;28;20046;-56
2023/12/28 02:32:40;;;;;;;5.65;1.30;;;;;;;16.99;48.13;100897.28;5035278;28;20087;-56
2023/12/28 02:35:23;;;;;;;1.88;1.35;;;;;;;17.01;47.13;100892.53;5032816;28;20553;-56
2023/12/28 02:37:50;;;;;;;;;;;;;;;17.01;46.99;100886.28;5030693;28;20087;-56
2023/12/28 02:40:16;;;;;;;1.40;1.13;;;;;;;16.95;47.76;100866.13;5031436;28;20003;-56
2023/12/28 02:42:41;;;;;;;2.20;1.33;;;;;;;17.01;47.11;100883.56;5031498;28;20445;-56
2023/12/28 02:45:07;;;;;;;4.00;1.40;;;;;;;16.99;47.84;100877.47;5031204;28;20029;-56
2023/12/28 02:47:32;;;;;;;4.13;1.02;;;;;;;16.98;46.84;100876.63;5032859;28;20401;-56
2023/12/28 02:49:59;;;;;;;5.72;1.90;;;;;;;16.96;47.27;100869.69;5032691;28;20068;-56
2023/12/28 02:52:25;;;;;;;10.95;1.65;;;;;;;16.96;47.64;100881.38;5032556;28;20164;-56
2023/12/28 02:54:50;;;;;;;2.22;1.35;;;;;;;16.97;48.22;100882.22;5032668;28;20102;-56
2023/12/28 02:57:18;;;;;;;2.67;1.30;;;;;;;16.98;47.69;100883.91;5031558;28;20493;-56
2023/12/28 02:59:44;;;;;;;2.25;1.20;;;;;;;16.96;47.19;100878.66;5015714;28;20056;-56
2023/12/28 03:02:10;;;;;;;5.03;1.52;;;;;;;16.95;47.24;100876.13;5014792;28;20041;-56
2023/12/28 03:04:35;;;;;;;1.95;1.08;;;;;;;16.89;48.02;100870.38;5031396;28;20097;-56
2023/12/28 03:07:01;;;;;;;2.80;1.10;;;;;;;16.93;47.33;100875.44;5032586;28;20061;-56
2023/12/28 03:09:26;;;;;;;5.15;1.00;;;;;;;16.92;47.31;100880.00;5032512;28;20030;-56
2023/12/28 03:11:52;;;;;;;1.63;1.00;;;;;;;16.88;47.71;100884.94;5032386;28;20042;-56
2023/12/28 03:14:17;;;;;;;4.03;1.15;;;;;;;16.86;48.15;100876.13;5031996;28;20492;-56
2023/12/28 03:16:43;;;;;;;7.35;1.48;;;;;;;16.89;47.71;100870.38;5036006;28;20033;-56
2023/12/28 03:19:08;;;;;;;2.58;1.27;;;;;;;16.88;48.17;100874.09;5036006;28;20164;-56
2023/12/28 03:21:38;;;;;;;1.73;1.05;;;;;;;16.86;48.96;100859.88;5036047;28;20053;-56
2023/12/28 03:24:04;;;;;;;2.47;1.20;;;;;;;16.85;47.54;100863.63;5034897;28;20033;-56
2023/12/28 03:26:30;;;;;;;3.92;1.27;;;;;;;16.86;47.83;100862.59;5034505;28;20505;-56
2023/12/28 03:28:55;;;;;;;3.00;1.75;;;;;;;16.85;48.12;100852.81;5034556;28;20502;-56
2023/12/28 03:31:20;;;;;;;2.30;0.93;;;;;;;16.83;47.85;100843.97;5035807;28;20042;-56
2023/12/28 03:33:45;;;;;;;1.55;1.00;;;;;;;16.84;48.36;100861.91;5035926;28;20555;-56
2023/12/28 03:36:18;;;;;;;4.05;1.33;;;;;;;16.84;48.09;100861.91;5035614;28;20025;-56
2023/12/28 03:38:43;;;;;;;1.35;0.98;;;;;;;16.84;48.29;100856.50;5035635;28;20051;-56
2023/12/28 03:41:19;;;;;;;3.78;1.00;;;;;;;16.85;48.73;100858.22;5035994;28;20034;-56
2023/12/28 03:43:48;;;;;;;2.25;1.10;;;;;;;16.84;48.35;100855.66;5034606;28;20025;-56
2023/12/28 03:46:13;;;;;;;2.92;1.25;;;;;;;16.84;48.21;100859.22;5035477;28;20033;-56
2023/12/28 03:48:39;;;;;;;3.83;1.05;;;;;;;16.82;47.80;100855.00;5017744;28;20037;-56
2023/12/28 03:51:05;;;;;;;4.43;0.88;;;;;;;16.84;47.76;100851.09;5034008;28;20057;-56
2023/12/28 03:53:33;;;;;;;2.83;1.05;;;;;;;16.83;48.61;100854.00;5033822;28;20050;-56
2023/12/28 03:55:59;;;;;;;3.58;1.10;;;;;;;16.84;48.23;100851.09;5034092;28;20064;-57
2023/12/28 03:58:24;;;;;;;1.92;0.85;;;;;;;16.81;47.95;100840.59;5035271;28;20117;-56
2023/12/28 04:00:50;;;;;;;2.42;1.10;;;;;;;16.81;48.56;100840.59;5033905;28;20044;-56
2023/12/28 04:03:15;;;;;;;1.67;1.08;;;;;;;16.82;48.63;100858.53;5034035;28;20030;-56
2023/12/28 04:05:43;;;;;;;4.38;1.08;;;;;;;16.83;48.10;100846.69;5035269;28;20464;-56
2023/12/28 04:08:08;;;;;;;3.35;1.05;;;;;;;16.84;47.92;100850.25;5033826;28;20037;-56
2023/12/28 04:10:33;;;;;;;7.57;1.15;;;;;;;16.84;48.15;100864.63;5033686;28;20056;-56
2023/12/28 04:13:00;;;;;;;3.65;1.27;;;;;;;16.87;48.22;100867.00;5033998;28;20029;-56
2023/12/28 04:15:28;;;;;;;4.78;1.23;;;;;;;16.88;48.88;100868.69;5033824;28;20437;-56
2023/12/28 04:17:54;;;;;;;4.85;2.35;;;;;;;16.92;48.57;100862.94;5033988;28;20030;-56
2023/12/28 04:20:19;;;;;;;1.80;0.98;;;;;;;16.92;48.18;100869.19;5034212;28;20033;-56
2023/12/28 04:22:45;;;;;;;2.85;1.38;;;;;;;16.91;47.96;100856.69;5034192;28;20029;-56
2023/12/28 04:25:10;;;;;;;1.27;0.80;;;;;;;16.95;47.99;100854.47;5035118;28;20033;-56
2023/12/28 04:27:36;;;;;;;2.95;0.95;;;;;;;16.95;48.41;100863.44;5034131;28;20030;-56
2023/12/28 04:30:01;;;;;;;2.97;1.40;;;;;;;16.98;47.96;100862.25;5034609;28;20045;-56
2023/12/28 04:32:27;;;;;;;4.78;0.90;;;;;;;16.98;48.92;100857.69;5035048;28;20060;-56
2023/12/28 04:34:53;;;;;;;2.55;0.90;;;;;;;17.01;47.76;100859.22;5034564;28;20029;-56
2023/12/28 04:37:19;;;;;;;3.90;0.93;;;;;;;17.02;48.35;100874.44;5034551;28;20037;-56
2023/12/28 04:39:45;;;;;;;2.97;1.08;;;;;;;17.01;48.27;100865.47;5034460;28;20132;-56
2023/12/28 04:42:10;;;;;;;7.00;0.90;;;;;;;16.99;47.90;100863.94;5033127;28;20034;-56
2023/12/28 04:44:38;;;;;;;4.63;0.95;;;;;;;16.99;48.50;100870.22;5034438;28;20036;-56
2023/12/28 04:47:04;;;;;;;5.20;1.48;;;;;;;17.03;48.45;100868.03;5033080;28;20033;-56
2023/12/28 04:49:30;;;;;;;1.38;0.85;;;;;;;17.06;48.07;100875.78;5032891;28;20404;-56
2023/12/28 04:51:55;;;;;;;2.90;0.85;;;;;;;17.07;48.52;100874.78;5016676;28;20386;-56
2023/12/28 04:54:21;;;;;;;2.63;0.93;;;;;;;17.07;47.87;100883.75;5034037;28;20034;-56
2023/12/28 04:56:46;;;;;;;3.88;0.98;;;;;;;17.06;48.66;100873.91;5033069;28;20029;-56
2023/12/28 04:59:12;;;;;;;1.77;1.17;;;;;;;17.10;48.50;100877.13;5016737;28;20033;-56
2023/12/28 05:01:41;;;;;;;7.00;1.23;;;;;;;17.10;47.91;100890.66;5034170;28;20025;-56
2023/12/28 05:04:06;;;;;;;3.30;0.85;;;;;;;17.13;49.07;100893.91;5033129;28;20029;-56
2023/12/28 05:06:32;;;;;;;7.32;1.27;;;;;;;17.14;48.81;100894.75;5033690;28;20029;-56
2023/12/28 05:08:57;;;;;;;3.92;1.10;;;;;;;17.17;48.14;100899.81;5032443;28;20084;-56
2023/12/28 05:11:23;;;;;;;3.85;1.10;;;;;;;17.18;48.21;100904.19;5033966;28;20079;-56
2023/12/28 05:13:48;;;;;;;2.30;0.75;;;;;;;17.22;48.50;100908.28;5035612;28;20029;-56
2023/12/28 05:16:13;;;;;;;2.20;1.13;;;;;;;17.24;47.89;100911.66;5053704;28;20037;-56
2023/12/28 05:18:39;;;;;;;1.98;1.00;;;;;;;17.23;48.11;100899.13;5052421;28;20025;-56
2023/12/28 05:21:04;;;;;;;2.80;1.02;;;;;;;17.24;48.08;100906.22;5053554;28;20040;-56
2023/12/28 05:23:30;;;;;;;3.53;1.02;;;;;;;17.24;48.33;100912.50;5053573;28;20037;-56
2023/12/28 05:25:55;;;;;;;3.05;0.93;;;;;;;17.25;48.73;100897.09;5052268;28;20047;-56
2023/12/28 05:28:20;;;;;;;5.93;0.90;;;;;;;17.27;48.08;100900.47;5053544;28;20594;-56
2023/12/28 05:30:46;;;;;;;2.80;0.82;;;;;;;17.29;48.18;100895.72;5053633;28;20032;-56
2023/12/28 05:33:11;;;;;;;8.13;1.20;;;;;;;17.28;48.81;100899.47;5035615;28;20491;-56
2023/12/28 05:35:37;;;;;;;4.00;1.00;;;;;;;17.28;47.80;100894.06;5052096;28;20032;-56
2023/12/28 05:38:02;;;;;;;1.45;1.35;;;;;;;17.29;48.39;100910.13;5052673;28;20523;-56
2023/12/28 05:40:27;;;;;;;3.50;1.40;;;;;;;17.29;48.48;100907.41;5052579;28;20036;-56
2023/12/28 05:42:53;;;;;;;1.80;0.90;;;;;;;17.25;48.47;100902.53;5036103;28;20040;-56
2023/12/28 05:45:19;;;;;;;3.58;1.30;;;;;;;17.30;47.75;100911.81;5052630;28;20040;-56
2023/12/28 05:47:46;;;;;;;2.83;1.20;;;;;;;17.32;48.13;100914.34;5052723;28;20033;-56
2023/12/28 05:50:12;;;;;;;4.43;1.08;;;;;;;17.26;48.27;100904.19;5054029;28;20040;-56
2023/12/28 05:52:38;;;;;;;8.48;1.02;;;;;;;17.27;47.64;100898.63;5054573;28;20128;-56
2023/12/28 05:55:04;;;;;;;7.45;0.85;;;;;;;17.31;47.12;100907.22;5054603;28;20067;-56
2023/12/28 05:57:30;;;;;;;2.95;1.00;;;;;;;17.31;48.01;100902.66;5055197;28;20075;-57
2023/12/28 05:59:56;;;;;;;3.50;1.10;;;;;;;17.29;48.58;100904.69;5054920;28;20045;-56
2023/12/28 06:02:22;;;;;;;6.78;1.52;;;;;;;17.29;47.88;100901.16;5054490;28;20031;-57
2023/12/28 06:04:47;;;;;;;2.55;1.00;;;;;;;17.28;47.30;100907.59;5052461;28;20035;-56
2023/12/28 06:07:13;;;;;;;3.33;1.02;;;;;;;17.26;47.62;100915.03;5052260;28;20025;-56
2023/12/28 06:09:38;;;;;;;3.70;1.05;;;;;;;17.25;48.68;100918.75;5052744;28;20049;-56
2023/12/28 06:12:05;;;;;;;3.22;0.98;;;;;;;17.26;47.66;100924.00;5036635;28;20030;-56
2023/12/28 06:14:30;;;;;;;6.45;1.13;;;;;;;17.24;48.43;100928.75;5032891;28;20547;-56
2023/12/28 06:16:55;;;;;;;3.67;1.00;;;;;;;17.27;48.04;100930.25;5031741;28;20061;-56
2023/12/28 06:19:22;;;;;;;2.90;0.90;;;;;;;17.30;47.80;100921.81;5033185;28;20151;-56
2023/12/28 06:21:48;;;;;;;3.58;1.08;;;;;;;17.30;48.01;100925.38;5033095;28;20461;-56
2023/12/28 06:24:13;;;;;;;4.57;0.75;;;;;;;17.30;47.81;100941.59;5032036;28;20033;-56
2023/12/28 06:26:42;;;;;;;3.55;0.95;;;;;;;17.30;47.28;100936.19;5031422;28;20017;-56
2023/12/28 06:29:09;;;;;;;4.22;1.02;;;;;;;17.30;47.94;100927.22;5014969;28;20473;-56
2023/12/28 06:31:36;;;;;;;6.18;1.05;;;;;;;17.28;47.34;100940.09;5032670;28;20366;-56
2023/12/28 06:34:04;;;;;;;3.80;1.05;;;;;;;17.25;47.74;100940.44;5032764;28;20408;-56
2023/12/28 06:36:30;;;;;;;4.32;1.15;;;;;;;17.26;48.31;100942.09;5014006;28;20579;-56
2023/12/28 06:38:56;;;;;;;2.20;1.10;;;;;;;17.29;48.24;100944.47;5031774;28;20041;-56
2023/12/28 06:41:21;;;;;;;3.50;1.27;;;;;;;17.29;48.27;100953.44;5032741;28;20034;-56
2023/12/28 06:43:46;;;;;;;3.60;0.77;;;;;;;17.30;47.34;100944.31;5033021;28;20033;-56
2023/12/28 06:46:12;;;;;;;3.88;1.05;;;;;;;17.28;47.92;100940.09;5032775;28;20037;-56
2023/12/28 06:48:40;;;;;;;8.82;1.27;;;;;;;17.28;47.50;100934.69;5031373;28;20489;-56
2023/12/28 06:51:06;;;;;;;6.22;1.00;;;;;;;17.30;47.44;100938.06;5034978;28;20033;-56
2023/12/28 06:53:31;;;;;;;4.68;1.17;;;;;;;17.30;47.49;100946.16;5034889;28;20052;-56
2023/12/28 06:55:56;;;;;;;5.10;1.17;;;;;;;17.31;48.31;100950.56;5036558;28;20121;-56
2023/12/28 06:58:23;;;;;;;1.83;0.75;;;;;;;17.32;48.30;100946.84;5036332;28;20069;-56
2023/12/28 07:00:48;;;;;;;4.78;1.67;;;;;;;17.32;47.56;100942.28;5035258;28;20033;-56
2023/12/28 07:03:14;;;;;;;2.67;0.88;;;;;;;17.30;48.10;100941.59;5036250;28;20091;-56
2023/12/28 07:05:39;;;;;;;7.68;2.47;;;;;;;17.31;47.49;100964.09;5035123;28;20029;-56
2023/12/28 07:08:05;;;;;;;2.47;0.98;;;;;;;17.29;47.70;100939.06;5036393;28;20030;-56
2023/12/28 07:10:30;;;;;;;3.80;0.93;;;;;;;17.27;48.24;100954.63;5036421;28;20033;-56
2023/12/28 07:12:55;;;;;;;8.48;0.95;;;;;;;17.27;48.05;100949.22;5036824;28;20037;-57
2023/12/28 07:15:21;;;;;;;8.20;1.38;;;;;;;17.24;47.71;100944.13;5020167;28;20112;-56
2023/12/28 07:17:46;;;;;;;7.75;1.38;;;;;;;17.23;47.65;100955.97;5038407;28;20030;-56
2023/12/28 07:20:12;;;;;;;4.95;1.35;;;;;;;17.23;48.22;100947.84;5020401;28;20104;-56
2023/12/28 07:22:38;;;;;;;8.50;0.80;;;;;;;17.21;48.44;100955.31;5034950;28;20113;-57
2023/12/28 07:25:06;;;;;;;6.93;1.33;;;;;;;17.18;47.66;100947.50;5034808;28;20041;-56
2023/12/28 07:27:36;;;;;;;3.47;1.17;;;;;;;17.20;48.13;100950.88;5036044;28;20029;-56
2023/12/28 07:30:02;;;;;;;5.60;1.27;;;;;;;17.18;47.38;100948.38;5035871;28;20049;-56
2023/12/28 07:32:28;;;;;;;6.30;1.15;;;;;;;17.18;47.74;100964.59;5034651;28;20428;-56
2023/12/28 07:34:54;;;;;;;2.83;1.00;;;;;;;17.18;47.28;100966.47;5034703;28;20056;-56
2023/12/28 07:37:20;;;;;;;7.13;1.20;;;;;;;17.17;47.49;100972.91;5035588;28;20057;-56
2023/12/28 07:39:46;;;;;;;9.88;1.00;;;;;;;17.18;47.12;100982.72;5018365;28;20112;-56
2023/12/28 07:42:12;;;;;;;8.90;1.83;;;;;;;17.17;47.59;100978.31;5034362;28;20026;-56
2023/12/28 07:44:37;;;;;;;6.43;1.08;;;;;;;17.21;47.53;100982.38;5035534;28;20036;-56
2023/12/28 07:47:03;;;;;;;5.03;1.38;;;;;;;17.19;47.44;100995.25;5034398;28;20116;-56
2023/12/28 07:49:30;;;;;;;12.60;1.35;;;;;;;17.19;47.23;100989.81;5035512;28;20083;-56
2023/12/28 07:51:56;;;;;;;8.63;1.20;;;;;;;17.20;47.91;100997.78;5035501;28;20022;-56
2023/12/28 07:54:21;;;;;;;3.13;0.88;;;;;;;17.24;47.59;101006.41;5017651;28;20042;-56
2023/12/28 07:56:46;;;;;;;5.93;1.42;;;;;;;17.26;47.27;100996.25;5035455;28;20512;-56
2023/12/28 07:59:12;;;;;;;8.02;1.73;;;;;;;17.26;47.55;100997.09;5033585;28;20036;-56
2023/12/28 08:01:37;;;;;;;6.57;1.00;;;;;;;17.28;48.27;100996.94;5033170;28;20041;-56
2023/12/28 08:04:03;;;;;;;5.93;1.75;;;;;;;17.23;47.30;100996.59;5033796;28;20084;-56
2023/12/28 08:06:32;;;;;;;6.72;1.30;;;;;;;17.29;47.24;101010.31;5035106;28;20036;-56
2023/12/28 08:08:59;;;;;;;13.52;1.95;;;;;;;17.31;47.54;101027.22;5033777;28;20039;-56
2023/12/28 08:11:24;;;;;;;9.00;1.52;;;;;;;17.32;47.77;100999.13;5035322;28;20033;-56
2023/12/28 08:13:49;;;;;;;6.32;0.90;;;;;;;17.33;47.28;101005.41;5034945;28;20103;-56
2023/12/28 08:16:15;;;;;;;4.20;0.70;;;;;;;17.32;47.49;101007.25;5033583;28;20447;-55
2023/12/28 08:18:40;;;;;;;12.10;2.55;;;;;;;17.37;48.01;101020.28;5034546;28;20061;-56
2023/12/28 08:21:05;;;;;;;11.25;1.42;;;;;;;17.39;47.77;101023.69;5034380;28;20041;-56
2023/12/28 08:23:31;;;;;;;10.27;1.52;;;;;;;17.38;47.26;101027.41;5033602;28;20546;-56
2023/12/28 08:25:56;;;;;;;3.60;0.98;;;;;;;17.40;47.40;101022.66;5033687;28;20026;-56
2023/12/28 08:28:23;;;;;;;6.25;1.35;;;;;;;17.44;47.87;101021.31;5033682;28;20366;-56
2023/12/28 08:30:48;;;;;;;6.07;1.55;;;;;;;17.45;46.87;101028.41;5034755;28;20038;-56
2023/12/28 08:33:14;;;;;;;8.48;1.40;;;;;;;17.48;46.80;101034.34;5034500;28;20037;-56
2023/12/28 08:35:39;;;;;;;10.23;1.30;;;;;;;17.55;47.22;101029.16;5034617;28;20049;-56
2023/12/28 08:38:06;;;;;;;5.13;1.10;;;;;;;17.58;46.77;101023.38;5033359;28;20497;-56
2023/12/28 08:40:31;;;;;;;9.43;1.67;;;;;;;17.58;47.35;101028.81;5034458;28;20579;-56
2023/12/28 08:42:57;;;;;;;5.95;1.15;;;;;;;17.60;46.83;101029.47;5033229;28;20034;-57
2023/12/28 08:45:22;;;;;;;8.15;1.45;;;;;;;17.66;46.84;101026.09;5034341;28;20044;-61
2023/12/28 08:47:47;;;;;;;18.50;2.58;;;;;;;17.70;46.67;101027.44;5033158;28;20477;-61
2023/12/28 08:50:13;;;;;;;7.85;2.35;;;;;;;17.72;47.09;101019.16;5034035;28;20084;-61
2023/12/28 08:52:38;;;;;;;4.00;0.80;;;;;;;17.76;46.53;101024.03;5032712;28;20065;-61
2023/12/28 08:55:05;;;;;;;4.80;0.88;;;;;;;17.80;46.45;101017.28;5034271;28;20516;-61
2023/12/28 08:57:31;;;;;;;7.53;1.15;;;;;;;17.81;46.29;101016.25;5034429;28;20068;-62
2023/12/28 08:59:57;;;;;;;6.57;1.08;;;;;;;17.86;46.40;101026.59;5034183;28;20084;-61
2023/12/28 09:02:22;;;;;;;8.05;1.02;;;;;;;17.88;46.47;101041.66;5032861;28;20576;-62
2023/12/28 09:04:48;;;;;;;4.25;1.20;;;;;;;17.95;46.57;101044.53;5032828;28;20116;-62
2023/12/28 09:07:14;;;;;;;9.73;1.38;;;;;;;17.98;46.35;101042.31;5016072;28;20119;-61
2023/12/28 09:09:39;;;;;;;8.48;0.95;;;;;;;18.11;46.28;101046.38;5032683;28;20064;-61
2023/12/28 09:12:05;;;;;;;13.88;2.30;;;;;;;18.16;46.31;101050.25;5033979;28;20493;-62
2023/12/28 09:14:30;;;;;;;11.65;1.25;;;;;;;18.20;46.70;101043.44;5032684;28;20044;-61
2023/12/28 09:16:56;;;;;;;9.10;2.20;;;;;;;18.25;46.19;101051.94;5033904;28;20492;-61
2023/12/28 09:19:22;;;;;;;5.00;1.27;;;;;;;18.29;45.92;101046.97;5033949;28;20119;-62
2023/12/28 09:21:48;;;;;;;7.75;1.38;;;;;;;18.34;45.93;101047.34;5032714;28;20500;-61
2023/12/28 09:24:14;;;;;;;4.07;0.95;;;;;;;18.38;46.21;101037.81;5032617;28;20071;-61
2023/12/28 09:26:41;;;;;;;9.02;1.48;;;;;;;18.44;46.16;101037.13;5033005;28;20037;-61
2023/12/28 09:29:06;;;;;;;8.85;1.10;;;;;;;18.47;46.00;101036.78;5032814;28;20382;-61
2023/12/28 09:31:31;;;;;;;8.10;0.95;;;;;;;18.51;45.47;101033.56;5034751;28;20094;-62
2023/12/28 09:33:57;;;;;;;6.05;0.75;;;;;;;18.54;45.51;101038.63;5034409;28;20053;-62
2023/12/28 09:36:22;;;;;;;7.53;1.30;;;;;;;18.61;45.69;101036.06;5034929;28;20036;-61
2023/12/28 09:38:48;;;;;;;5.97;1.10;;;;;;;18.68;45.53;101042.47;5033920;28;20032;-62
2023/12/28 09:41:15;;;;;;;4.63;1.35;;;;;;;18.73;45.71;101041.97;5033009;28;20036;-66
2023/12/28 09:44:13;;;;;;;7.53;2.63;;;;;;;18.79;45.43;101052.13;5033451;28;20045;-61
2023/12/28 09:46:42;;;;;;;5.53;1.17;;;;;;;18.81;45.37;101056.34;5010478;28;20413;-62
2023/12/28 09:49:08;;;;;;;6.75;1.63;;;;;;;18.85;45.26;101046.81;5031919;28;20128;-62
2023/12/28 09:51:34;;;;;;;4.95;1.10;;;;;;;18.84;45.22;101042.41;5033054;28;20038;-60
2023/12/28 09:54:00;;;;;;;6.20;1.83;;;;;;;18.87;45.09;101052.88;5031657;28;20068;-56
2023/12/28 09:56:25;;;;;;;4.15;1.08;;;;;;;18.90;45.10;101055.25;5032912;28;20051;-57
2023/12/28 09:58:51;;;;;;;5.88;2.08;;;;;;;18.89;45.61;101052.72;5031916;28;20040;-57
2023/12/28 10:01:17;;;;;;;6.50;1.33;;;;;;;18.85;45.55;101057.66;5032827;28;20038;-57
2023/12/28 10:03:43;;;;;;;7.88;2.40;;;;;;;18.86;45.43;101053.94;5033314;28;20061;-57
2023/12/28 10:06:08;;;;;;;8.73;1.58;;;;;;;18.84;45.38;101050.56;5032126;28;20445;-56
2023/12/28 10:08:34;;;;;;;8.20;1.05;;;;;;;18.84;45.61;101055.13;5031923;28;20047;-57
2023/12/28 10:11:00;;;;;;;3.58;0.80;;;;;;;18.81;45.46;101055.50;5031802;28;20025;-57
2023/12/28 10:13:26;;;;;;;7.93;1.00;;;;;;;18.77;44.77;101049.56;5032942;28;20041;-57
2023/12/28 10:15:51;;;;;;;10.65;1.90;;;;;;;18.88;45.37;101046.44;5031689;28;20029;-57
2023/12/28 10:18:19;;;;;;;9.68;0.90;;;;;;;19.04;45.17;101050.94;5015346;28;20036;-56
2023/12/28 10:20:51;;;;;;;2.65;1.13;;;;;;;19.22;44.82;101042.53;5032846;28;20402;-57
2023/12/28 10:23:18;;;;;;;5.28;1.58;;;;;;;19.18;45.24;101042.88;5031621;28;20413;-57
2023/12/28 10:25:45;;;;;;;6.93;1.08;;;;;;;19.44;44.84;101052.59;5030598;28;20127;-56
2023/12/28 10:28:12;;;;;;;5.03;1.02;;;;;;;19.57;44.38;101053.66;5032781;28;20469;-57
2023/12/28 10:30:38;;;;;;;12.68;2.05;;;;;;;19.68;44.07;101050.50;5032931;28;20049;-57
2023/12/28 10:33:06;;;;;;;9.40;1.73;;;;;;;19.69;44.32;101051.38;5032865;28;20107;-57
2023/12/28 10:35:32;;;;;;;5.00;1.38;;;;;;;19.89;44.39;101047.09;5015008;28;20029;-57
2023/12/28 10:38:00;;;;;;;7.32;1.23;;;;;;;20.13;43.72;101059.63;5031552;28;20040;-57
2023/12/28 10:40:26;;;;;;;4.85;1.25;;;;;;;20.20;43.77;101045.09;5032712;28;20028;-57
2023/12/28 10:42:54;;;;;;;6.70;1.25;;;;;;;20.41;43.93;101036.22;5015108;28;20017;-57
2023/12/28 10:45:23;;;;;;;7.80;1.75;;;;;;;20.49;42.90;101036.13;5031478;28;20389;-57
2023/12/28 10:48:07;;;;;;;12.07;1.48;;;;;;;20.55;43.98;101037.25;5032903;28;20049;-57
2023/12/28 10:50:52;;;;;;;4.30;0.93;;;;;;;20.72;43.86;101025.13;5031666;28;20030;-56
2023/12/28 10:53:36;;;;;;;7.28;0.88;;;;;;;20.84;43.17;101031.78;5014226;28;20528;-57
2023/12/28 10:56:48;;;;;;;8.52;1.40;;;;;;;20.94;42.70;101020.59;5032633;28;20042;-57
2023/12/28 10:59:19;;;;;;;5.70;1.20;;;;;;;21.03;43.31;101036.59;5023271;28;20127;-57
2023/12/28 11:01:47;;;;;;;5.32;1.52;;;;;;;21.08;43.31;101034.16;5031504;28;20034;-58
2023/12/28 11:04:32;;;;;;;7.07;1.20;;;;;;;21.08;42.17;101033.34;5032689;28;20105;-57
2023/12/28 11:06:58;;;;;;;8.65;1.85;;;;;;;21.02;42.42;101024.00;5031054;28;20501;-57
2023/12/28 11:09:24;;;;;;;4.25;1.10;;;;;;;20.84;42.54;101031.78;5032316;28;20057;-57
2023/12/28 11:11:51;;;;;;;9.73;1.55;;;;;;;20.68;42.60;101034.72;5031475;28;20361;-57
2023/12/28 11:14:18;;;;;;;6.82;1.42;;;;;;;20.62;42.72;101027.28;5040135;28;20115;-57
2023/12/28 11:16:43;;;;;;;13.63;1.58;;;;;;;20.54;42.82;101030.97;5034519;28;20074;-57
2023/12/28 11:19:09;;;;;;;4.28;0.98;;;;;;;20.56;42.52;101030.78;5051003;28;20021;-57
2023/12/28 11:21:35;;;;;;;14.13;1.15;;;;;;;20.52;43.38;101013.16;5051290;28;20099;-57